Time;durP1;ratioP1;P1;durP2;ratioP2;P2;SDS_P1;SDS_P2;PMS_P1;PMS_P2;Temp;Humidity;BMP_temperature;BMP_pressure;BME280_temperature;BME280_humidity;BME280_pressure;Samples;Min_cycle;Max_cycle;Signal;HPM_P1;HPM_P2
2023/11/06 00:01:14;;;;;;;3.55;1.33;;;11.10;99.90;;;;;;5073544;28;20418;-48
2023/11/06 00:03:40;;;;;;;8.63;1.60;;;11.10;99.90;;;;;;5073670;28;20020;-48
2023/11/06 00:06:05;;;;;;;6.13;1.80;;;11.10;99.90;;;;;;5073292;28;20115;-50
2023/11/06 00:08:31;;;;;;;11.45;1.73;;;11.00;99.90;;;;;;5073727;28;20103;-48
2023/11/06 00:10:56;;;;;;;5.78;1.63;;;11.00;99.90;;;;;;5073599;28;20064;-48
2023/11/06 00:13:22;;;;;;;4.22;1.60;;;11.00;99.90;;;;;;5073806;28;20035;-49
2023/11/06 00:15:48;;;;;;;5.13;1.48;;;11.00;99.90;;;;;;5073587;28;20029;-51
2023/11/06 00:18:13;;;;;;;7.13;1.75;;;11.10;99.90;;;;;;5073372;28;20388;-50
2023/11/06 00:20:39;;;;;;;5.95;1.33;;;11.10;99.90;;;;;;5073469;28;20492;-51
2023/11/06 00:23:05;;;;;;;4.38;1.33;;;11.10;99.90;;;;;;5073469;28;20023;-48
2023/11/06 00:25:31;;;;;;;7.03;2.50;;;11.10;99.90;;;;;;5073505;28;20017;-47
2023/11/06 00:27:57;;;;;;;6.65;2.35;;;11.10;99.90;;;;;;5073236;28;20095;-49
2023/11/06 00:30:22;;;;;;;9.63;4.68;;;11.10;99.90;;;;;;5073060;28;20461;-48
2023/11/06 00:32:48;;;;;;;11.32;5.72;;;11.10;99.90;;;;;;5073164;28;20111;-49
2023/11/06 00:35:13;;;;;;;5.57;1.63;;;11.20;99.90;;;;;;5073231;28;20025;-47
2023/11/06 00:37:39;;;;;;;6.80;1.40;;;11.20;99.90;;;;;;5073453;28;20036;-50
2023/11/06 00:40:07;;;;;;;8.23;1.90;;;11.20;99.90;;;;;;5055103;28;20031;-48
2023/11/06 00:42:33;;;;;;;4.88;1.67;;;11.20;99.90;;;;;;5073000;28;20016;-48
2023/11/06 00:44:59;;;;;;;4.93;1.58;;;11.20;99.90;;;;;;5073019;28;20184;-49
2023/11/06 00:47:24;;;;;;;3.55;1.45;;;11.20;99.90;;;;;;5072935;28;20025;-54
2023/11/06 00:49:50;;;;;;;5.20;1.10;;;11.20;99.90;;;;;;5072739;28;20557;-48
2023/11/06 00:52:16;;;;;;;7.95;1.50;;;11.30;99.90;;;;;;5072919;28;20033;-49
2023/11/06 00:54:41;;;;;;;10.60;1.85;;;11.30;99.90;;;;;;5072908;28;20491;-49
2023/11/06 00:57:07;;;;;;;7.18;1.98;;;11.30;99.90;;;;;;5072824;28;20039;-49
2023/11/06 00:59:32;;;;;;;6.05;1.70;;;11.30;99.90;;;;;;5054848;28;20017;-48
2023/11/06 01:01:58;;;;;;;4.10;1.85;;;11.30;99.90;;;;;;5072695;28;20476;-51
2023/11/06 01:04:23;;;;;;;7.63;2.30;;;11.30;99.90;;;;;;5072897;28;20024;-48
2023/11/06 01:06:49;;;;;;;5.07;2.03;;;11.30;99.90;;;;;;5072753;28;20024;-52
2023/11/06 01:09:16;;;;;;;12.18;3.45;;;11.40;99.90;;;;;;5072920;28;20549;-52
2023/11/06 01:11:49;;;;;;;9.13;1.73;;;11.40;99.90;;;;;;5072573;28;20044;-51
2023/11/06 01:14:16;;;;;;;8.98;2.85;;;11.40;99.90;;;;;;5073292;28;20094;-52
2023/11/06 01:16:41;;;;;;;11.25;1.60;;;11.30;99.90;;;;;;5071780;28;20032;-48
2023/11/06 01:19:08;;;;;;;7.72;2.05;;;11.30;99.90;;;;;;5071961;28;20029;-47
2023/11/06 01:21:33;;;;;;;9.02;2.65;;;11.30;99.90;;;;;;5072364;28;20024;-50
2023/11/06 01:23:59;;;;;;;6.82;2.30;;;11.40;99.90;;;;;;5072489;28;20078;-48
2023/11/06 01:26:24;;;;;;;5.32;1.45;;;11.30;99.90;;;;;;5072001;28;20551;-48
2023/11/06 01:28:50;;;;;;;7.50;1.75;;;11.30;99.90;;;;;;5072153;28;20032;-49
2023/11/06 01:31:17;;;;;;;10.02;1.80;;;11.40;99.90;;;;;;5071774;28;20024;-48
2023/11/06 01:33:43;;;;;;;9.30;2.25;;;11.40;99.90;;;;;;5072082;28;20055;-49
2023/11/06 01:36:09;;;;;;;7.50;1.63;;;11.30;99.90;;;;;;5053756;28;20028;-50
2023/11/06 01:38:36;;;;;;;9.40;1.92;;;11.40;99.90;;;;;;5053907;28;20028;-48
2023/11/06 01:41:03;;;;;;;8.70;1.55;;;11.30;99.90;;;;;;5071772;28;20032;-49
2023/11/06 01:43:28;;;;;;;8.15;2.10;;;11.30;99.90;;;;;;5071739;28;20017;-47
2023/11/06 01:45:54;;;;;;;7.57;1.45;;;11.30;99.90;;;;;;5071536;28;20230;-48
2023/11/06 01:48:21;;;;;;;6.97;1.98;;;11.30;99.90;;;;;;5071907;28;20028;-49
2023/11/06 01:50:46;;;;;;;8.68;2.17;;;11.30;99.90;;;;;;5053668;28;20025;-48
2023/11/06 01:53:13;;;;;;;10.23;2.03;;;11.30;99.90;;;;;;5071712;28;20082;-47
2023/11/06 01:55:41;;;;;;;9.65;1.92;;;11.20;99.90;;;;;;5071454;28;20062;-51
2023/11/06 01:58:07;;;;;;;7.78;1.65;;;11.30;99.90;;;;;;5071755;28;20036;-49
2023/11/06 02:00:33;;;;;;;9.02;2.13;;;11.30;99.90;;;;;;5053394;28;20498;-48
2023/11/06 02:03:00;;;;;;;14.85;2.28;;;11.30;99.90;;;;;;5071753;28;20353;-50
2023/11/06 02:05:27;;;;;;;11.25;2.70;;;11.30;99.90;;;;;;5071438;28;20391;-47
2023/11/06 02:07:52;;;;;;;6.18;1.63;;;11.20;99.90;;;;;;5071815;28;20411;-48
2023/11/06 02:10:18;;;;;;;7.05;1.70;;;11.20;99.90;;;;;;5071308;28;20040;-50
2023/11/06 02:12:47;;;;;;;3.08;1.20;;;11.30;99.90;;;;;;5053557;28;20445;-48
2023/11/06 02:15:15;;;;;;;4.75;1.00;;;11.30;99.90;;;;;;5071299;28;20028;-50
2023/11/06 02:17:42;;;;;;;5.55;1.50;;;11.30;99.90;;;;;;5071378;28;20028;-47
2023/11/06 02:20:09;;;;;;;6.65;1.75;;;11.30;99.90;;;;;;5071577;28;20021;-51
2023/11/06 02:22:38;;;;;;;4.93;1.80;;;11.30;99.90;;;;;;5071599;28;20017;-48
2023/11/06 02:25:03;;;;;;;6.25;1.55;;;11.30;99.90;;;;;;5071217;28;20024;-48
2023/11/06 02:27:29;;;;;;;5.00;1.30;;;11.20;99.90;;;;;;5071380;28;20033;-48
2023/11/06 02:29:54;;;;;;;5.90;1.55;;;11.20;99.90;;;;;;5074431;28;20033;-48
2023/11/06 02:32:21;;;;;;;6.10;1.90;;;11.20;99.90;;;;;;5076031;28;20519;-52
2023/11/06 02:34:46;;;;;;;7.80;1.50;;;11.20;99.90;;;;;;5075523;28;20107;-49
2023/11/06 02:37:12;;;;;;;6.03;1.80;;;11.20;99.90;;;;;;5075712;28;20518;-51
2023/11/06 02:39:37;;;;;;;7.68;2.00;;;11.20;99.90;;;;;;5075441;28;20032;-47
2023/11/06 02:42:04;;;;;;;9.82;1.17;;;11.30;99.90;;;;;;5075945;28;20020;-53
2023/11/06 02:44:30;;;;;;;6.75;1.73;;;11.30;99.90;;;;;;5075715;28;20020;-54
2023/11/06 02:46:56;;;;;;;7.72;2.15;;;11.20;99.90;;;;;;5057423;28;20442;-53
2023/11/06 02:49:23;;;;;;;9.07;2.10;;;11.20;99.90;;;;;;5075286;28;20063;-52
2023/11/06 02:51:50;;;;;;;8.52;1.73;;;11.20;99.90;;;;;;5057499;28;20036;-52
2023/11/06 02:54:16;;;;;;;3.88;1.00;;;11.30;99.90;;;;;;5074976;28;20108;-51
2023/11/06 02:56:41;;;;;;;5.68;1.75;;;11.20;99.90;;;;;;5074870;28;20460;-51
2023/11/06 02:59:07;;;;;;;5.18;1.48;;;11.10;99.90;;;;;;5056806;28;20082;-48
2023/11/06 03:01:34;;;;;;;9.32;1.50;;;11.10;99.90;;;;;;5075065;28;20027;-49
2023/11/06 03:04:00;;;;;;;6.72;1.40;;;11.10;99.90;;;;;;5074887;28;20037;-50
2023/11/06 03:06:27;;;;;;;6.55;1.35;;;11.10;99.90;;;;;;5074898;28;20025;-53
2023/11/06 03:08:53;;;;;;;9.20;2.10;;;11.00;99.90;;;;;;5074811;28;20364;-50
2023/11/06 03:11:19;;;;;;;8.75;1.75;;;11.00;99.90;;;;;;5074706;28;20044;-48
2023/11/06 03:13:44;;;;;;;5.55;1.48;;;10.90;99.90;;;;;;5056659;28;20028;-50
2023/11/06 03:16:10;;;;;;;9.27;1.33;;;10.90;99.90;;;;;;5056355;28;20079;-50
2023/11/06 03:18:35;;;;;;;10.48;2.10;;;10.90;99.90;;;;;;5074640;28;20085;-51
2023/11/06 03:21:02;;;;;;;4.38;1.38;;;10.90;99.90;;;;;;5074382;28;20051;-49
2023/11/06 03:23:27;;;;;;;5.47;1.27;;;10.90;99.90;;;;;;5074463;28;20071;-48
2023/11/06 03:25:53;;;;;;;11.10;2.20;;;10.80;99.90;;;;;;5074433;28;20087;-51
2023/11/06 03:28:18;;;;;;;7.78;1.25;;;10.90;99.90;;;;;;5056667;28;20503;-50
2023/11/06 03:30:44;;;;;;;10.10;1.38;;;10.80;99.90;;;;;;5074198;28;20035;-49
2023/11/06 03:33:09;;;;;;;3.58;1.20;;;10.80;99.90;;;;;;5074801;28;20028;-47
2023/11/06 03:35:35;;;;;;;2.22;1.27;;;10.80;99.90;;;;;;5073920;28;20022;-48
2023/11/06 03:38:01;;;;;;;7.45;1.90;;;10.80;99.90;;;;;;5074304;28;20021;-48
2023/11/06 03:40:26;;;;;;;9.93;2.60;;;10.70;99.90;;;;;;5073367;28;20020;-49
2023/11/06 03:42:52;;;;;;;5.30;1.05;;;10.70;99.90;;;;;;5074140;28;20027;-47
2023/11/06 03:45:17;;;;;;;2.92;1.08;;;10.80;99.90;;;;;;5074013;28;20498;-45
2023/11/06 03:47:43;;;;;;;3.40;1.38;;;10.80;99.90;;;;;;5074011;28;20036;-48
2023/11/06 03:50:09;;;;;;;1.45;1.02;;;10.80;99.90;;;;;;5073839;28;20306;-48
2023/11/06 03:52:34;;;;;;;4.80;0.98;;;10.80;99.90;;;;;;5074073;28;20438;-49
2023/11/06 03:55:00;;;;;;;8.45;1.45;;;10.80;99.90;;;;;;5073941;28;20025;-49
2023/11/06 03:57:25;;;;;;;2.60;0.98;;;10.80;99.90;;;;;;5073728;28;20081;-51
2023/11/06 03:59:51;;;;;;;2.08;0.82;;;10.70;99.90;;;;;;5073391;28;20024;-48
2023/11/06 04:02:17;;;;;;;4.40;0.77;;;10.70;99.90;;;;;;5073800;28;20023;-49
2023/11/06 04:04:42;;;;;;;1.73;0.88;;;10.70;99.90;;;;;;5073663;28;20404;-48
2023/11/06 04:07:09;;;;;;;5.70;1.00;;;10.70;99.90;;;;;;5073682;28;20052;-51
2023/11/06 04:09:36;;;;;;;3.97;0.80;;;10.60;99.90;;;;;;5073559;28;20074;-49
2023/11/06 04:12:02;;;;;;;3.70;0.98;;;10.60;99.90;;;;;;5073636;28;20032;-49
2023/11/06 04:14:28;;;;;;;2.05;0.82;;;10.60;99.90;;;;;;5073490;28;20027;-47
2023/11/06 04:16:53;;;;;;;0.95;0.80;;;10.50;99.90;;;;;;5073203;28;20041;-49
2023/11/06 04:19:19;;;;;;;2.83;1.10;;;10.50;99.90;;;;;;5073502;28;20384;-49
2023/11/06 04:21:44;;;;;;;5.05;1.40;;;10.50;99.90;;;;;;5073495;28;20020;-49
2023/11/06 04:24:10;;;;;;;1.90;1.10;;;10.50;99.90;;;;;;5073409;28;20092;-47
2023/11/06 04:26:35;;;;;;;5.05;0.90;;;10.50;99.90;;;;;;5073102;28;20127;-48
2023/11/06 04:29:01;;;;;;;3.55;1.40;;;10.40;99.90;;;;;;5073001;28;20040;-47
2023/11/06 04:31:26;;;;;;;6.55;1.15;;;10.40;99.90;;;;;;5073163;28;20066;-52
2023/11/06 04:33:52;;;;;;;4.50;1.23;;;10.40;99.90;;;;;;5073268;28;20040;-48
2023/11/06 04:36:17;;;;;;;4.45;1.85;;;10.40;99.90;;;;;;5072900;28;20115;-49
2023/11/06 04:38:43;;;;;;;4.75;1.10;;;10.40;99.90;;;;;;5073147;28;20078;-52
2023/11/06 04:41:08;;;;;;;3.65;1.27;;;10.40;99.90;;;;;;5072926;28;20044;-49
2023/11/06 04:43:35;;;;;;;6.90;1.55;;;10.40;99.90;;;;;;5054917;28;20392;-50
2023/11/06 04:46:01;;;;;;;8.93;1.25;;;10.40;99.90;;;;;;5072793;28;20032;-48
2023/11/06 04:48:28;;;;;;;3.13;0.88;;;10.40;99.90;;;;;;5072860;28;20527;-49
2023/11/06 04:50:54;;;;;;;6.65;1.48;;;10.40;99.90;;;;;;5072668;28;20031;-52
2023/11/06 04:53:19;;;;;;;2.17;1.02;;;10.50;99.90;;;;;;5072080;28;20024;-52
2023/11/06 04:55:47;;;;;;;4.45;1.42;;;10.40;99.90;;;;;;5072760;28;20052;-50
2023/11/06 04:58:12;;;;;;;3.72;1.23;;;10.50;99.90;;;;;;5072805;28;20052;-51
2023/11/06 05:00:38;;;;;;;5.15;1.20;;;10.50;99.90;;;;;;5054672;28;20493;-48
2023/11/06 05:03:03;;;;;;;6.57;1.67;;;10.50;99.90;;;;;;5072902;28;20021;-52
2023/11/06 05:05:29;;;;;;;6.00;1.77;;;10.50;99.90;;;;;;5072609;28;20025;-50
2023/11/06 05:07:55;;;;;;;8.02;1.48;;;10.50;99.90;;;;;;5072712;28;20104;-50
2023/11/06 05:10:21;;;;;;;6.35;1.38;;;10.50;99.90;;;;;;5072173;28;20515;-47
2023/11/06 05:12:47;;;;;;;4.40;1.15;;;10.40;99.90;;;;;;5072703;28;20036;-49
2023/11/06 05:15:12;;;;;;;7.70;1.40;;;10.50;99.90;;;;;;5072131;28;20098;-48
2023/11/06 05:17:38;;;;;;;5.97;2.28;;;10.40;99.90;;;;;;5072177;28;20086;-49
2023/11/06 05:20:05;;;;;;;8.57;2.10;;;10.40;99.90;;;;;;5072043;28;20028;-47
2023/11/06 05:22:30;;;;;;;8.68;1.50;;;10.40;99.90;;;;;;5072315;28;20028;-49
2023/11/06 05:24:56;;;;;;;9.80;2.03;;;10.50;99.90;;;;;;5071970;28;20025;-49
2023/11/06 05:27:22;;;;;;;5.45;1.50;;;10.50;99.90;;;;;;5072547;28;20356;-49
2023/11/06 05:29:47;;;;;;;6.88;1.65;;;10.40;99.90;;;;;;5072145;28;20065;-50
2023/11/06 05:32:13;;;;;;;7.28;1.63;;;10.40;99.90;;;;;;5072322;28;20032;-50
2023/11/06 05:34:38;;;;;;;5.40;1.58;;;10.40;99.90;;;;;;5072235;28;20035;-53
2023/11/06 05:37:05;;;;;;;6.60;1.55;;;10.40;99.90;;;;;;5072097;28;20032;-51
2023/11/06 05:39:30;;;;;;;6.00;1.55;;;10.40;99.90;;;;;;5071845;28;20047;-49
2023/11/06 05:41:56;;;;;;;9.48;1.75;;;10.30;99.90;;;;;;5054330;28;20105;-47
2023/11/06 05:44:21;;;;;;;3.65;1.10;;;10.40;99.90;;;;;;5071965;28;20026;-51
2023/11/06 05:46:47;;;;;;;6.15;1.50;;;10.30;99.90;;;;;;5072097;28;20028;-49
2023/11/06 05:49:12;;;;;;;5.90;1.63;;;10.30;99.90;;;;;;5071678;28;20025;-48
2023/11/06 05:51:41;;;;;;;8.10;1.70;;;10.30;99.90;;;;;;5071811;28;20033;-50
2023/11/06 05:54:06;;;;;;;6.25;1.40;;;10.30;99.90;;;;;;5071662;28;20111;-47
2023/11/06 05:56:33;;;;;;;5.25;1.40;;;10.30;99.90;;;;;;5053682;28;20124;-52
2023/11/06 05:58:58;;;;;;;7.68;2.05;;;10.20;99.90;;;;;;5071787;28;20017;-53
2023/11/06 06:01:24;;;;;;;6.05;1.33;;;10.30;99.90;;;;;;5053274;28;20361;-48
2023/11/06 06:03:49;;;;;;;5.28;1.50;;;10.30;99.90;;;;;;5071512;28;20056;-48
2023/11/06 06:06:16;;;;;;;3.80;1.38;;;10.30;99.90;;;;;;5053564;28;20020;-49
2023/11/06 06:08:42;;;;;;;7.78;2.15;;;10.40;99.90;;;;;;5071728;28;20261;-52
2023/11/06 06:11:08;;;;;;;6.18;1.55;;;10.30;99.90;;;;;;5071415;28;20423;-50
2023/11/06 06:13:34;;;;;;;14.43;2.20;;;10.40;99.90;;;;;;5071630;28;20099;-49
2023/11/06 06:16:01;;;;;;;7.47;1.58;;;10.40;99.90;;;;;;5071895;28;20124;-49
2023/11/06 06:18:27;;;;;;;4.70;1.13;;;10.40;99.90;;;;;;5071516;28;20021;-49
2023/11/06 06:20:52;;;;;;;11.05;1.83;;;10.50;99.90;;;;;;5071325;28;20480;-50
2023/11/06 06:23:17;;;;;;;11.95;2.08;;;10.50;99.90;;;;;;5071550;28;20067;-48
2023/11/06 06:25:43;;;;;;;16.95;2.35;;;10.50;99.90;;;;;;5053486;28;20422;-52
2023/11/06 06:28:09;;;;;;;5.57;1.42;;;10.60;99.90;;;;;;5071260;28;20136;-50
2023/11/06 06:30:34;;;;;;;6.75;1.77;;;10.70;99.90;;;;;;5071225;28;20033;-50
2023/11/06 06:33:00;;;;;;;14.93;1.83;;;10.70;99.90;;;;;;5071432;28;20021;-51
2023/11/06 06:35:25;;;;;;;5.95;1.45;;;10.70;99.90;;;;;;5071088;28;20112;-46
2023/11/06 06:37:51;;;;;;;4.68;1.48;;;10.70;99.90;;;;;;5071220;28;20028;-53
2023/11/06 06:40:17;;;;;;;7.65;2.05;;;10.60;99.90;;;;;;5071185;28;20090;-53
2023/11/06 06:42:42;;;;;;;8.55;1.63;;;10.70;99.90;;;;;;5071293;28;20082;-49
2023/11/06 06:45:08;;;;;;;3.35;1.55;;;10.70;99.90;;;;;;5071042;28;20024;-49
2023/11/06 06:47:34;;;;;;;10.85;1.52;;;10.70;99.90;;;;;;5071033;28;20017;-50
2023/11/06 06:49:59;;;;;;;8.88;1.80;;;10.80;99.90;;;;;;5071019;28;20021;-52
2023/11/06 06:52:25;;;;;;;7.00;1.58;;;10.70;99.90;;;;;;5070912;28;20107;-45
2023/11/06 06:54:50;;;;;;;5.78;1.52;;;10.80;99.90;;;;;;5071183;28;20029;-49
2023/11/06 06:57:16;;;;;;;5.70;1.80;;;10.80;99.90;;;;;;5070906;28;20081;-48
2023/11/06 06:59:42;;;;;;;9.82;2.08;;;10.90;99.90;;;;;;5070926;28;20150;-51
2023/11/06 07:02:08;;;;;;;6.43;1.23;;;11.00;99.90;;;;;;5070865;28;20166;-50
2023/11/06 07:04:33;;;;;;;6.35;1.67;;;11.00;99.90;;;;;;5053085;28;20027;-51
2023/11/06 07:06:59;;;;;;;11.02;2.05;;;10.90;99.90;;;;;;5070878;28;20396;-48
2023/11/06 07:09:26;;;;;;;9.20;1.75;;;10.90;99.90;;;;;;5070939;28;20028;-50
2023/11/06 07:11:52;;;;;;;9.15;1.98;;;10.90;99.90;;;;;;5071149;28;20025;-51
2023/11/06 07:14:18;;;;;;;7.55;2.40;;;10.90;99.90;;;;;;5070954;28;20036;-52
2023/11/06 07:16:44;;;;;;;6.45;1.70;;;10.90;99.90;;;;;;5073179;28;20404;-49
2023/11/06 07:19:09;;;;;;;9.27;2.28;;;10.80;99.90;;;;;;5074566;28;20032;-50
2023/11/06 07:21:35;;;;;;;10.40;2.28;;;10.80;99.90;;;;;;5074553;28;20020;-51
2023/11/06 07:24:00;;;;;;;9.77;2.20;;;10.80;99.90;;;;;;5056491;28;20024;-50
2023/11/06 07:26:27;;;;;;;9.77;1.70;;;10.80;99.90;;;;;;5074357;28;20331;-47
2023/11/06 07:28:52;;;;;;;10.70;2.28;;;10.90;99.90;;;;;;5074425;28;20035;-44
2023/11/06 07:31:18;;;;;;;7.15;1.75;;;11.00;99.90;;;;;;5074072;28;20266;-46
2023/11/06 07:33:43;;;;;;;8.48;2.42;;;11.10;99.90;;;;;;5074529;28;20104;-49
2023/11/06 07:36:09;;;;;;;7.07;1.70;;;11.20;99.90;;;;;;5074373;28;20056;-49
2023/11/06 07:38:35;;;;;;;5.68;1.55;;;11.20;99.90;;;;;;5074548;28;20048;-48
2023/11/06 07:41:02;;;;;;;6.40;1.48;;;11.40;99.90;;;;;;5074259;28;20365;-49
2023/11/06 07:43:28;;;;;;;11.90;3.55;;;11.30;99.90;;;;;;5074569;28;20024;-51
2023/11/06 07:45:53;;;;;;;6.95;1.45;;;11.40;99.90;;;;;;5074057;28;20029;-49
2023/11/06 07:48:19;;;;;;;12.93;2.05;;;11.50;99.90;;;;;;5074189;28;20040;-50
2023/11/06 07:50:44;;;;;;;13.65;3.53;;;11.50;99.90;;;;;;5074032;28;20024;-49
2023/11/06 07:53:10;;;;;;;7.60;2.45;;;11.50;99.90;;;;;;5060066;28;20437;-51
2023/11/06 07:55:36;;;;;;;5.93;1.48;;;11.60;99.90;;;;;;5094183;28;20024;-47
2023/11/06 07:58:01;;;;;;;4.72;1.30;;;11.60;99.90;;;;;;5094491;28;20479;-50
2023/11/06 08:00:27;;;;;;;8.93;1.58;;;11.70;99.90;;;;;;5074127;28;20047;-50
2023/11/06 08:02:53;;;;;;;9.93;1.73;;;11.80;99.90;;;;;;5074201;28;20035;-49
2023/11/06 08:05:19;;;;;;;8.35;1.67;;;11.70;99.90;;;;;;5073814;28;20498;-53
2023/11/06 08:07:44;;;;;;;7.85;1.65;;;11.70;99.90;;;;;;5073900;28;20506;-48
2023/11/06 08:10:12;;;;;;;10.20;2.30;;;11.70;99.90;;;;;;5088999;28;20032;-48
2023/11/06 08:12:37;;;;;;;9.57;2.13;;;11.80;99.90;;;;;;5086862;28;20040;-45
2023/11/06 08:15:03;;;;;;;9.15;2.55;;;11.80;99.90;;;;;;5081033;28;20032;-47
2023/11/06 08:17:29;;;;;;;20.17;2.58;;;11.80;99.90;;;;;;5093387;28;20036;-51
2023/11/06 08:19:55;;;;;;;10.77;2.25;;;11.90;99.90;;;;;;5087364;28;20173;-46
2023/11/06 08:22:21;;;;;;;6.53;2.05;;;11.80;99.90;;;;;;5076956;28;20028;-46
2023/11/06 08:24:47;;;;;;;9.25;1.80;;;11.80;99.90;;;;;;5093904;28;20084;-46
2023/11/06 08:27:13;;;;;;;5.50;1.88;;;11.80;99.90;;;;;;5091005;28;20024;-50
2023/11/06 08:29:42;;;;;;;4.97;1.75;;;11.80;99.90;;;;;;5076107;28;20032;-55
2023/11/06 08:32:14;;;;;;;7.03;2.45;;;11.80;99.90;;;;;;5093300;28;20099;-48
2023/11/06 08:34:43;;;;;;;7.93;1.77;;;12.00;99.90;;;;;;5073548;28;20047;-52
2023/11/06 08:37:11;;;;;;;10.25;2.20;;;12.00;99.90;;;;;;5073245;28;20064;-50
2023/11/06 08:39:46;;;;;;;11.02;2.53;;;12.10;99.90;;;;;;5073392;28;20017;-49
2023/11/06 08:42:13;;;;;;;4.05;1.50;;;12.10;99.90;;;;;;5073294;28;20021;-47
2023/11/06 08:44:45;;;;;;;11.35;2.15;;;12.10;99.90;;;;;;5055356;28;20020;-52
2023/11/06 08:47:12;;;;;;;12.35;1.75;;;12.10;99.90;;;;;;5073234;28;20021;-48
2023/11/06 08:49:38;;;;;;;16.38;2.63;;;12.20;99.90;;;;;;5073058;28;20033;-49
2023/11/06 08:52:04;;;;;;;8.57;2.42;;;12.10;99.90;;;;;;5055327;28;20116;-51
2023/11/06 08:54:30;;;;;;;14.00;1.73;;;12.10;99.90;;;;;;5072953;28;20537;-54
2023/11/06 08:56:57;;;;;;;10.70;2.60;;;12.10;99.90;;;;;;5072529;28;20036;-52
2023/11/06 08:59:23;;;;;;;8.27;1.92;;;12.10;99.90;;;;;;5072648;28;20025;-49
2023/11/06 09:01:49;;;;;;;9.15;1.60;;;12.20;99.90;;;;;;5072867;28;20062;-51
2023/11/06 09:04:16;;;;;;;7.75;2.38;;;12.10;99.90;;;;;;5054637;28;20032;-49
2023/11/06 09:06:41;;;;;;;13.18;1.90;;;12.10;99.90;;;;;;5074894;28;20039;-47
2023/11/06 09:09:08;;;;;;;7.40;2.25;;;12.00;99.90;;;;;;5088829;28;20032;-52
2023/11/06 09:11:35;;;;;;;11.65;2.63;;;12.00;99.90;;;;;;5063291;28;20514;-49
2023/11/06 09:14:03;;;;;;;11.20;2.33;;;12.00;99.90;;;;;;5092978;28;20024;-51
2023/11/06 09:16:30;;;;;;;10.43;2.75;;;12.10;99.90;;;;;;5091762;28;20447;-50
2023/11/06 09:18:56;;;;;;;13.52;2.40;;;12.10;99.90;;;;;;5080804;28;20021;-52
2023/11/06 09:21:21;;;;;;;9.57;3.08;;;12.10;99.90;;;;;;5076567;28;20099;-53
2023/11/06 09:23:47;;;;;;;7.43;2.63;;;12.10;99.90;;;;;;5068447;28;20527;-53
2023/11/06 09:26:13;;;;;;;16.65;2.38;;;12.20;99.90;;;;;;5081314;28;20047;-48
2023/11/06 09:28:38;;;;;;;16.10;2.58;;;12.20;99.90;;;;;;5079086;28;20055;-48
2023/11/06 09:31:04;;;;;;;11.13;2.10;;;12.30;99.90;;;;;;5091674;28;20024;-52
2023/11/06 09:33:30;;;;;;;9.35;1.75;;;12.20;99.90;;;;;;5092198;28;20043;-51
2023/11/06 09:35:55;;;;;;;5.10;1.77;;;12.30;99.90;;;;;;5091916;28;20475;-52
2023/11/06 09:38:21;;;;;;;11.68;2.35;;;12.40;99.90;;;;;;5073450;28;20099;-49
2023/11/06 09:40:47;;;;;;;9.07;2.90;;;12.40;99.90;;;;;;5081204;28;20479;-51
2023/11/06 09:43:13;;;;;;;12.38;2.15;;;12.50;99.90;;;;;;5082015;28;20020;-54
2023/11/06 09:45:39;;;;;;;8.23;2.83;;;12.60;99.90;;;;;;5071772;28;20396;-55
2023/11/06 09:48:11;;;;;;;12.20;2.13;;;12.70;99.90;;;;;;5087250;28;20028;-51
2023/11/06 09:50:41;;;;;;;14.55;3.83;;;12.60;99.90;;;;;;5071888;28;20415;-53
2023/11/06 09:53:08;;;;;;;13.85;1.88;;;12.60;99.90;;;;;;5072021;28;20024;-55
2023/11/06 09:55:34;;;;;;;6.28;1.52;;;12.50;99.90;;;;;;5087602;28;20031;-55
2023/11/06 09:58:01;;;;;;;6.32;2.40;;;12.50;99.90;;;;;;5081030;28;20368;-58
2023/11/06 10:00:27;;;;;;;7.93;2.83;;;12.60;99.90;;;;;;5083254;28;20032;-56
2023/11/06 10:02:54;;;;;;;13.27;2.05;;;13.00;99.90;;;;;;5071693;28;20031;-55
2023/11/06 10:05:20;;;;;;;8.85;1.83;;;13.30;99.90;;;;;;5087009;28;20055;-53
2023/11/06 10:07:54;;;;;;;9.98;2.67;;;13.70;99.90;;;;;;5071337;28;20093;-55
2023/11/06 10:10:27;;;;;;;8.23;1.60;;;14.20;99.90;;;;;;5072647;28;20081;-52
2023/11/06 10:13:03;;;;;;;12.05;2.08;;;14.50;99.90;;;;;;5086988;28;20024;-50
2023/11/06 10:15:30;;;;;;;11.68;2.15;;;14.70;99.90;;;;;;5062599;28;20043;-51
2023/11/06 10:18:13;;;;;;;12.15;2.35;;;14.40;99.90;;;;;;5086842;28;20121;-54
2023/11/06 10:20:50;;;;;;;12.27;2.78;;;14.10;99.90;;;;;;5066804;28;20074;-51
2023/11/06 10:23:27;;;;;;;13.88;2.17;;;13.90;99.90;;;;;;5058862;28;20412;-48
2023/11/06 10:25:54;;;;;;;10.23;1.90;;;13.60;99.90;;;;;;5071504;28;20031;-51
2023/11/06 10:28:21;;;;;;;6.15;1.73;;;13.70;99.90;;;;;;5053469;28;20039;-50
2023/11/06 10:30:48;;;;;;;16.73;3.15;;;14.00;99.90;;;;;;5080223;28;20044;-53
2023/11/06 10:33:15;;;;;;;9.73;2.00;;;14.20;99.90;;;;;;5073550;28;20036;-55
2023/11/06 10:35:41;;;;;;;10.27;2.08;;;14.50;99.90;;;;;;5091431;28;20081;-56
2023/11/06 10:38:07;;;;;;;5.43;1.77;;;14.60;99.90;;;;;;5076442;28;20441;-56
2023/11/06 10:40:33;;;;;;;5.95;1.58;;;14.30;99.90;;;;;;5071106;28;20036;-55
2023/11/06 10:43:03;;;;;;;8.63;2.35;;;14.20;99.90;;;;;;5075046;28;20279;-53
2023/11/06 10:45:32;;;;;;;9.23;1.80;;;14.00;99.90;;;;;;5087273;28;20146;-53
2023/11/06 10:48:09;;;;;;;6.57;2.25;;;13.90;99.90;;;;;;5072960;28;20081;-54
2023/11/06 10:50:37;;;;;;;47.00;24.98;;;13.90;99.90;;;;;;5074169;28;20028;-53
2023/11/06 10:53:05;;;;;;;138.48;68.90;;;13.90;99.90;;;;;;5077963;28;20024;-53
2023/11/06 10:55:33;;;;;;;8.38;3.05;;;13.80;99.90;;;;;;5075119;28;20376;-51
2023/11/06 10:58:00;;;;;;;10.52;1.92;;;13.80;99.90;;;;;;5074865;28;20024;-53
2023/11/06 11:00:26;;;;;;;11.68;1.73;;;13.80;99.90;;;;;;5074979;28;20020;-54
2023/11/06 11:02:54;;;;;;;10.52;2.03;;;13.80;99.90;;;;;;5074096;28;20017;-49
2023/11/06 11:05:29;;;;;;;9.30;2.03;;;13.80;99.90;;;;;;5074710;28;20028;-56
2023/11/06 11:07:59;;;;;;;5.65;1.40;;;14.00;99.90;;;;;;5079305;28;20073;-56
2023/11/06 11:10:29;;;;;;;8.07;1.92;;;14.20;99.90;;;;;;5094183;28;20089;-56
2023/11/06 11:12:58;;;;;;;6.05;2.13;;;14.30;99.90;;;;;;5069834;28;20024;-55
2023/11/06 11:15:32;;;;;;;6.95;1.60;;;14.20;99.90;;;;;;5072758;28;20044;-50
2023/11/06 11:18:05;;;;;;;9.20;1.55;;;14.20;99.90;;;;;;5078408;28;20017;-60
2023/11/06 11:20:53;;;;;;;8.57;1.33;;;14.20;99.90;;;;;;5064621;28;20443;-56
2023/11/06 11:23:48;;;;;;;4.13;1.40;;;14.10;99.90;;;;;;5072816;28;20387;-60
2023/11/06 11:26:14;;;;;;;5.10;1.20;;;14.10;99.90;;;;;;5093715;28;20447;-60
2023/11/06 11:28:57;;;;;;;6.72;1.75;;;14.00;99.90;;;;;;5062619;28;20107;-60
2023/11/06 11:31:47;;;;;;;6.22;1.52;;;14.00;99.90;;;;;;5074249;28;20032;-48
2023/11/06 11:34:33;;;;;;;9.20;1.95;;;13.90;99.90;;;;;;5089172;28;20062;-54
2023/11/06 11:36:59;;;;;;;5.80;1.20;;;13.80;99.90;;;;;;5087933;28;20024;-49
2023/11/06 11:39:28;;;;;;;3.25;1.08;;;13.90;99.90;;;;;;5078581;28;20388;-51
2023/11/06 11:42:00;;;;;;;3.67;1.35;;;13.90;99.90;;;;;;5073905;28;20361;-50
2023/11/06 11:44:26;;;;;;;9.32;1.45;;;13.80;99.90;;;;;;5077371;28;20023;-48
2023/11/06 11:46:54;;;;;;;7.53;1.30;;;13.50;99.90;;;;;;5068388;28;20028;-49
2023/11/06 11:49:39;;;;;;;5.22;1.38;;;13.50;99.90;;;;;;5078304;28;20584;-57
2023/11/06 11:52:07;;;;;;;9.48;1.65;;;13.50;99.90;;;;;;5059957;28;20036;-58
2023/11/06 11:54:35;;;;;;;2.90;0.90;;;13.60;99.90;;;;;;5079665;28;20024;-50
2023/11/06 11:57:04;;;;;;;4.35;1.35;;;13.70;99.90;;;;;;5073614;28;20028;-52
2023/11/06 11:59:37;;;;;;;4.50;0.95;;;13.80;99.90;;;;;;5075216;28;20393;-57
2023/11/06 12:02:05;;;;;;;2.08;0.88;;;13.80;99.90;;;;;;5076842;28;20494;-53
2023/11/06 12:04:31;;;;;;;3.85;0.98;;;13.90;99.90;;;;;;5073476;28;20073;-47
2023/11/06 12:07:02;;;;;;;3.38;1.60;;;14.00;99.90;;;;;;5073486;28;20071;-52
2023/11/06 12:09:41;;;;;;;2.58;1.00;;;14.10;99.90;;;;;;5073878;28;20103;-52
2023/11/06 12:12:08;;;;;;;5.88;1.60;;;14.10;99.90;;;;;;5073327;28;20395;-56
2023/11/06 12:14:37;;;;;;;5.80;1.23;;;14.10;99.90;;;;;;5073895;28;20099;-50
2023/11/06 12:17:02;;;;;;;2.88;0.90;;;14.20;99.90;;;;;;5073474;28;20021;-52
2023/11/06 12:19:43;;;;;;;5.97;1.05;;;14.20;99.90;;;;;;5073325;28;20421;-49
2023/11/06 12:22:13;;;;;;;2.35;1.10;;;14.20;99.90;;;;;;5080260;28;20413;-58
2023/11/06 12:24:48;;;;;;;3.33;1.00;;;14.20;99.90;;;;;;5095049;28;20032;-56
2023/11/06 12:27:13;;;;;;;6.25;1.23;;;14.20;99.90;;;;;;5092969;28;20112;-58
2023/11/06 12:29:39;;;;;;;7.07;0.88;;;14.00;99.90;;;;;;5072098;28;20571;-54
2023/11/06 12:32:21;;;;;;;1.15;0.88;;;13.80;99.90;;;;;;5091074;28;20018;-58
2023/11/06 12:34:46;;;;;;;5.28;0.95;;;13.80;99.90;;;;;;5093396;28;20051;-56
2023/11/06 12:37:12;;;;;;;4.13;1.23;;;13.80;99.90;;;;;;5093215;28;20487;-58
2023/11/06 12:39:38;;;;;;;6.38;1.38;;;13.80;99.90;;;;;;5088098;28;20029;-55
2023/11/06 12:42:08;;;;;;;2.92;1.10;;;13.70;99.90;;;;;;5055670;28;20082;-55
2023/11/06 12:44:38;;;;;;;5.30;1.40;;;13.60;99.90;;;;;;5093145;28;20088;-54